Time;durP1;ratioP1;P1;durP2;ratioP2;P2;SDS_P1;SDS_P2;PMS_P1;PMS_P2;Temp;Humidity;BMP_temperature;BMP_pressure;BME280_temperature;BME280_humidity;BME280_pressure;Samples;Min_cycle;Max_cycle;Signal;HPM_P1;HPM_P2
2023/10/05 00:01:20;;;;;;;;;;;21.80;41.80;;;;;;1488787;78;1517;-59
2023/10/05 00:03:05;;;;;;;;;;;21.90;41.90;;;;;;1484288;78;1444;-58
2023/10/05 00:05:05;;;;;;;;;;;21.80;41.80;;;;;;1497163;78;1593;-60
2023/10/05 00:07:07;;;;;;;;;;;21.80;41.80;;;;;;1493389;78;748;-58
2023/10/05 00:09:16;;;;;;;;;;;21.80;41.80;;;;;;1487715;78;805;-60
2023/10/05 00:11:22;;;;;;;;;;;21.80;41.80;;;;;;1493226;78;1916;-60
2023/10/05 00:13:16;;;;;;;;;;;21.80;41.70;;;;;;1491177;78;1447;-58
2023/10/05 00:15:22;;;;;;;;;;;21.80;41.70;;;;;;1487610;78;756;-57
2023/10/05 00:17:26;;;;;;;;;;;21.80;41.60;;;;;;1484816;78;1673;-59
2023/10/05 00:19:30;;;;;;;;;;;21.90;41.80;;;;;;1494098;78;1494;-58
2023/10/05 00:21:35;;;;;;;;;;;21.80;41.60;;;;;;1482016;78;1570;-57
2023/10/05 00:23:35;;;;;;;;;;;21.80;41.60;;;;;;1492009;78;1000;-58
2023/10/05 00:25:39;;;;;;;;;;;21.80;41.50;;;;;;1498232;78;783;-57
2023/10/05 00:27:43;;;;;;;;;;;21.80;41.50;;;;;;1492753;78;784;-61
2023/10/05 00:29:56;;;;;;;;;;;21.80;41.40;;;;;;1491471;78;990;-58
2023/10/05 00:31:48;;;;;;;;;;;21.80;41.50;;;;;;1489359;78;1923;-58
2023/10/05 00:33:56;;;;;;;;;;;21.80;41.60;;;;;;1491131;78;732;-57
2023/10/05 00:35:54;;;;;;;;;;;21.80;41.50;;;;;;1486750;78;1533;-57
2023/10/05 00:38:12;;;;;;;;;;;21.80;41.50;;;;;;1498912;78;747;-59
2023/10/05 00:40:04;;;;;;;;;;;21.80;41.40;;;;;;1492253;78;1570;-58
2023/10/05 00:42:11;;;;;;;;;;;21.80;41.40;;;;;;1488978;78;2035;-59
2023/10/05 00:44:13;;;;;;;;;;;21.80;41.40;;;;;;1490185;78;890;-58
2023/10/05 00:46:15;;;;;;;;;;;21.80;41.30;;;;;;1496374;78;1553;-60
2023/10/05 00:48:34;;;;;;;;;;;21.80;41.30;;;;;;1499406;78;739;-61
2023/10/05 00:50:34;;;;;;;;;;;21.80;41.40;;;;;;1493530;78;1934;-58
2023/10/05 00:52:35;;;;;;;;;;;21.80;41.30;;;;;;1488408;78;985;-59
2023/10/05 00:54:40;;;;;;;;;;;21.80;41.30;;;;;;1491618;78;658;-58
2023/10/05 00:56:42;;;;;;;;;;;21.80;41.30;;;;;;1490467;78;689;-60
2023/10/05 00:58:55;;;;;;;;;;;21.70;41.30;;;;;;1490786;78;699;-57
2023/10/05 01:00:53;;;;;;;;;;;21.80;41.20;;;;;;1494408;78;1550;-57
2023/10/05 01:05:15;;;;;;;;;;;21.80;41.20;;;;;;1458487;78;1108;-61
2023/10/05 01:07:26;;;;;;;;;;;21.70;41.20;;;;;;1486673;78;1758;-60
2023/10/05 01:11:54;;;;;;;;;;;21.70;41.10;;;;;;1492819;78;1918;-58
2023/10/05 01:13:49;;;;;;;;;;;21.80;41.00;;;;;;1493262;78;1657;-59
2023/10/05 01:15:54;;;;;;;;;;;21.70;41.00;;;;;;1497302;78;1693;-59
2023/10/05 01:17:56;;;;;;;;;;;21.80;41.00;;;;;;1498534;78;1680;-60
2023/10/05 01:20:07;;;;;;;;;;;21.70;41.00;;;;;;1489154;78;707;-58
2023/10/05 01:22:06;;;;;;;;;;;21.70;41.00;;;;;;1491293;78;1607;-59
2023/10/05 01:24:07;;;;;;;;;;;21.80;40.90;;;;;;1493320;78;1654;-62
2023/10/05 01:26:14;;;;;;;;;;;21.70;40.80;;;;;;1493652;78;747;-60
2023/10/05 01:28:14;;;;;;;;;;;21.70;41.00;;;;;;1481800;78;1584;-62
2023/10/05 01:30:16;;;;;;;;;;;21.70;41.00;;;;;;1488527;78;1169;-60
2023/10/05 01:32:17;;;;;;;;;;;21.70;41.00;;;;;;1492489;78;1914;-60
2023/10/05 01:34:20;;;;;;;;;;;21.70;41.00;;;;;;1497436;78;703;-61
2023/10/05 01:36:23;;;;;;;;;;;21.70;41.10;;;;;;1486381;78;1036;-54
2023/10/05 01:38:26;;;;;;;;;;;21.70;41.00;;;;;;1467405;80;644;-60
2023/10/05 01:40:30;;;;;;;;;;;21.70;41.00;;;;;;1496572;78;1639;-59
2023/10/05 01:42:33;;;;;;;;;;;21.70;40.80;;;;;;1488419;78;1191;-60
2023/10/05 01:44:37;;;;;;;;;;;21.70;40.90;;;;;;1493553;78;723;-59
2023/10/05 01:46:38;;;;;;;;;;;21.70;41.00;;;;;;1491107;78;1528;-58
2023/10/05 01:48:41;;;;;;;;;;;21.70;41.00;;;;;;1498471;78;792;-62
2023/10/05 01:50:44;;;;;;;;;;;21.70;40.90;;;;;;1491555;78;1949;-59
2023/10/05 01:52:51;;;;;;;;;;;21.70;40.90;;;;;;1489172;78;765;-59
2023/10/05 01:54:52;;;;;;;;;;;21.70;40.70;;;;;;1496472;78;1538;-61
2023/10/05 01:57:01;;;;;;;;;;;21.70;40.80;;;;;;1502426;78;1451;-59
2023/10/05 01:59:00;;;;;;;;;;;21.70;40.70;;;;;;1491888;78;1677;-61
2023/10/05 02:01:03;;;;;;;;;;;21.70;40.70;;;;;;1485538;78;1663;-58
2023/10/05 02:03:14;;;;;;;;;;;21.70;40.70;;;;;;1495603;78;710;-59
2023/10/05 02:05:21;;;;;;;;;;;21.60;40.70;;;;;;1494097;78;720;-59
2023/10/05 02:07:21;;;;;;;;;;;21.60;40.70;;;;;;1489214;78;1518;-60
2023/10/05 02:09:23;;;;;;;;;;;21.70;40.90;;;;;;1501341;78;760;-58
2023/10/05 02:11:25;;;;;;;;;;;21.60;41.00;;;;;;1495555;78;1921;-57
2023/10/05 02:13:29;;;;;;;;;;;21.60;41.10;;;;;;1486683;78;729;-59
2023/10/05 02:15:30;;;;;;;;;;;21.70;41.40;;;;;;1496482;78;1700;-60
2023/10/05 02:17:32;;;;;;;;;;;21.70;41.50;;;;;;1480716;78;738;-61
2023/10/05 02:19:41;;;;;;;;;;;21.70;41.50;;;;;;1490290;78;712;-60
2023/10/05 02:21:39;;;;;;;;;;;21.70;41.70;;;;;;1491101;78;1670;-58
2023/10/05 02:23:41;;;;;;;;;;;21.70;41.80;;;;;;1488484;78;759;-58
2023/10/05 02:25:44;;;;;;;;;;;21.70;42.10;;;;;;1484188;78;1595;-61
2023/10/05 02:27:46;;;;;;;;;;;21.70;42.40;;;;;;1484943;78;772;-60
2023/10/05 02:29:48;;;;;;;;;;;21.60;42.50;;;;;;1493736;78;762;-59
2023/10/05 02:34:06;;;;;;;;;;;21.70;43.10;;;;;;1474541;78;871;-62
2023/10/05 02:36:11;;;;;;;;;;;21.70;43.50;;;;;;1484445;78;886;-59
2023/10/05 02:38:18;;;;;;;;;;;21.60;43.50;;;;;;1495649;78;655;-61
2023/10/05 02:40:16;;;;;;;;;;;21.70;43.60;;;;;;1497123;78;1512;-59
2023/10/05 02:42:21;;;;;;;;;;;21.70;43.70;;;;;;1495025;78;755;-60
2023/10/05 02:46:26;;;;;;;;;;;21.70;43.90;;;;;;1491417;78;879;-58
2023/10/05 02:48:30;;;;;;;;;;;21.70;44.10;;;;;;1492208;78;682;-61
2023/10/05 02:50:32;;;;;;;;;;;21.80;44.00;;;;;;1487657;78;1647;-59
2023/10/05 02:52:33;;;;;;;;;;;21.70;44.00;;;;;;1494888;78;1926;-59
2023/10/05 02:54:36;;;;;;;;;;;21.70;44.00;;;;;;1488316;78;751;-59
2023/10/05 02:56:40;;;;;;;;;;;21.80;44.20;;;;;;1493377;78;766;-57
2023/10/05 02:58:44;;;;;;;;;;;21.70;44.20;;;;;;1494705;78;1072;-61
2023/10/05 03:00:45;;;;;;;;;;;21.80;44.20;;;;;;1493136;78;1175;-60
2023/10/05 03:02:50;;;;;;;;;;;21.80;44.50;;;;;;1493612;78;752;-59
2023/10/05 03:05:02;;;;;;;;;;;21.80;44.60;;;;;;1486005;78;1704;-56
2023/10/05 03:06:54;;;;;;;;;;;21.70;45.00;;;;;;1485748;78;1623;-62
2023/10/05 03:09:03;;;;;;;;;;;21.80;45.30;;;;;;1495897;78;809;-57
2023/10/05 03:10:59;;;;;;;;;;;21.70;45.50;;;;;;1494871;78;1931;-56
2023/10/05 03:13:03;;;;;;;;;;;21.80;45.10;;;;;;1499127;78;736;-57
2023/10/05 03:15:07;;;;;;;;;;;21.80;45.00;;;;;;1493879;78;740;-56
2023/10/05 03:17:13;;;;;;;;;;;21.80;45.00;;;;;;1491893;78;714;-55
2023/10/05 03:19:15;;;;;;;;;;;21.80;44.90;;;;;;1490587;78;1460;-57
2023/10/05 03:21:18;;;;;;;;;;;21.80;45.00;;;;;;1495360;78;1680;-58
2023/10/05 03:23:20;;;;;;;;;;;21.80;44.80;;;;;;1496009;78;703;-55
2023/10/05 03:25:22;;;;;;;;;;;21.80;44.70;;;;;;1495485;78;714;-57
2023/10/05 03:27:25;;;;;;;;;;;21.80;44.40;;;;;;1487727;78;667;-57
2023/10/05 03:29:27;;;;;;;;;;;21.80;44.30;;;;;;1487708;78;679;-60
2023/10/05 03:31:43;;;;;;;;;;;21.80;44.20;;;;;;1493430;78;1962;-56
2023/10/05 03:33:36;;;;;;;;;;;21.90;44.20;;;;;;1493756;78;1748;-58
2023/10/05 03:35:45;;;;;;;;;;;21.80;43.90;;;;;;1489963;78;1539;-59
2023/10/05 03:37:42;;;;;;;;;;;21.80;43.90;;;;;;1489883;78;1189;-59
2023/10/05 03:39:53;;;;;;;;;;;21.80;43.80;;;;;;1500182;78;1121;-59
2023/10/05 03:41:52;;;;;;;;;;;21.80;43.60;;;;;;1486996;78;1603;-57
2023/10/05 03:44:02;;;;;;;;;;;21.80;43.50;;;;;;1492178;78;747;-58
2023/10/05 03:46:08;;;;;;;;;;;21.80;43.60;;;;;;1502715;78;1743;-55
2023/10/05 03:48:10;;;;;;;;;;;21.80;43.60;;;;;;1485374;78;721;-58
2023/10/05 03:50:18;;;;;;;;;;;21.80;43.60;;;;;;1465247;79;1562;-59
2023/10/05 03:52:20;;;;;;;;;;;21.80;43.50;;;;;;1466363;79;1932;-59
2023/10/05 03:54:24;;;;;;;;;;;21.70;43.60;;;;;;1459956;80;719;-58
2023/10/05 03:56:27;;;;;;;;;;;21.80;43.70;;;;;;1484873;78;1890;-57
2023/10/05 03:58:29;;;;;;;;;;;21.80;43.40;;;;;;1500006;78;813;-59
2023/10/05 04:00:38;;;;;;;;;;;21.80;43.40;;;;;;1509372;78;1154;-59
2023/10/05 04:02:37;;;;;;;;;;;21.70;43.30;;;;;;1497840;78;1743;-56
2023/10/05 04:04:42;;;;;;;;;;;21.70;43.30;;;;;;1503601;78;788;-58
2023/10/05 04:06:44;;;;;;;;;;;21.70;43.10;;;;;;1501398;78;1481;-57
2023/10/05 04:08:53;;;;;;;;;;;21.70;43.10;;;;;;1500444;78;807;-60
2023/10/05 04:10:54;;;;;;;;;;;21.70;42.90;;;;;;1503674;78;1680;-57
2023/10/05 04:12:56;;;;;;;;;;;21.70;43.10;;;;;;1501099;78;1900;-59
2023/10/05 04:15:00;;;;;;;;;;;21.80;43.60;;;;;;1499066;78;696;-55
2023/10/05 04:17:07;;;;;;;;;;;21.70;43.80;;;;;;1502135;78;1537;-58
2023/10/05 04:19:05;;;;;;;;;;;21.80;43.90;;;;;;1499120;78;1502;-56
2023/10/05 04:21:10;;;;;;;;;;;21.80;44.40;;;;;;1502703;78;1607;-57
2023/10/05 04:23:25;;;;;;;;;;;21.80;45.00;;;;;;1500883;78;832;-57
2023/10/05 04:25:18;;;;;;;;;;;21.80;45.50;;;;;;1507578;78;1553;-59
2023/10/05 04:27:20;;;;;;;;;;;21.80;45.90;;;;;;1493659;78;780;-57
2023/10/05 04:29:23;;;;;;;;;;;21.80;45.20;;;;;;1496987;78;750;-59
2023/10/05 04:31:25;;;;;;;;;;;21.90;45.10;;;;;;1497789;78;1935;-57
2023/10/05 04:33:28;;;;;;;;;;;21.80;45.70;;;;;;1502395;78;741;-59
2023/10/05 04:35:38;;;;;;;;;;;21.80;45.90;;;;;;1492748;78;764;-59
2023/10/05 04:37:35;;;;;;;;;;;21.80;45.70;;;;;;1504026;78;1707;-58
2023/10/05 04:39:37;;;;;;;;;;;21.80;45.60;;;;;;1494507;78;652;-57
2023/10/05 04:41:49;;;;;;;;;;;21.90;45.90;;;;;;1500161;78;1253;-60
2023/10/05 04:43:45;;;;;;;;;;;21.90;45.80;;;;;;1500165;78;1271;-58
2023/10/05 04:45:47;;;;;;;;;;;21.90;46.00;;;;;;1496568;78;1348;-57
2023/10/05 04:47:49;;;;;;;;;;;21.90;45.90;;;;;;1502593;78;785;-61
2023/10/05 04:49:51;;;;;;;;;;;21.80;46.00;;;;;;1505085;78;798;-57
2023/10/05 04:51:53;;;;;;;;;;;21.90;47.30;;;;;;1502172;78;1943;-56
2023/10/05 04:53:58;;;;;;;;;;;21.90;48.40;;;;;;1499215;78;736;-57
2023/10/05 04:56:28;;;;;;;;;;;21.90;48.30;;;;;;1505864;78;1457;-54
2023/10/05 04:58:42;;;;;;;;;;;21.90;48.50;;;;;;1499192;78;1139;-56
2023/10/05 05:02:57;;;;;;;;;;;21.90;48.90;;;;;;1505361;78;867;-58
2023/10/05 05:05:04;;;;;;;;;;;21.90;49.00;;;;;;1499221;78;1353;-59
2023/10/05 05:06:56;;;;;;;;;;;21.90;49.20;;;;;;1495046;78;1689;-57
2023/10/05 05:08:58;;;;;;;;;;;21.90;49.20;;;;;;1506083;78;774;-59
2023/10/05 05:11:00;;;;;;;;;;;21.90;49.20;;;;;;1501588;78;1140;-59
2023/10/05 05:13:02;;;;;;;;;;;22.00;48.90;;;;;;1503215;78;1937;-57
2023/10/05 05:15:05;;;;;;;;;;;21.90;48.80;;;;;;1504227;78;775;-58
2023/10/05 05:17:07;;;;;;;;;;;21.90;48.60;;;;;;1497234;78;737;-57
2023/10/05 05:19:09;;;;;;;;;;;21.90;48.50;;;;;;1503789;78;717;-57
2023/10/05 05:21:11;;;;;;;;;;;21.90;48.70;;;;;;1505173;78;1183;-57
2023/10/05 05:23:16;;;;;;;;;;;21.90;48.50;;;;;;1491493;78;761;-59
2023/10/05 05:25:19;;;;;;;;;;;21.90;48.50;;;;;;1494397;78;1515;-59
2023/10/05 05:27:24;;;;;;;;;;;21.90;48.50;;;;;;1491543;78;1730;-58
2023/10/05 05:29:24;;;;;;;;;;;21.90;48.40;;;;;;1515353;77;1312;-59
2023/10/05 05:31:27;;;;;;;;;;;21.90;48.50;;;;;;1523731;76;1147;-57
2023/10/05 05:33:29;;;;;;;;;;;21.90;48.30;;;;;;1516978;77;1909;-57
2023/10/05 05:35:32;;;;;;;;;;;22.00;48.30;;;;;;1525475;76;837;-57
2023/10/05 05:37:34;;;;;;;;;;;22.00;48.50;;;;;;1514442;77;738;-59
2023/10/05 05:39:39;;;;;;;;;;;21.90;48.40;;;;;;1520313;77;806;-58
2023/10/05 05:41:39;;;;;;;;;;;21.90;48.30;;;;;;1524107;76;1680;-58
2023/10/05 05:43:41;;;;;;;;;;;21.90;48.40;;;;;;1524086;77;845;-55
2023/10/05 05:45:43;;;;;;;;;;;21.90;48.20;;;;;;1525829;76;725;-60
2023/10/05 05:47:48;;;;;;;;;;;21.90;48.40;;;;;;1515008;76;731;-59
2023/10/05 05:49:50;;;;;;;;;;;21.90;48.40;;;;;;1517353;77;1415;-57
2023/10/05 05:51:52;;;;;;;;;;;21.90;48.40;;;;;;1520248;76;1938;-59
2023/10/05 05:53:54;;;;;;;;;;;22.00;48.40;;;;;;1525190;77;729;-57
2023/10/05 05:56:01;;;;;;;;;;;21.90;48.30;;;;;;1527564;77;1492;-59
2023/10/05 05:57:59;;;;;;;;;;;21.90;48.50;;;;;;1526845;77;1555;-57
2023/10/05 06:00:10;;;;;;;;;;;21.90;48.60;;;;;;1527865;77;716;-60
2023/10/05 06:02:10;;;;;;;;;;;21.90;48.80;;;;;;1515508;77;1608;-56
2023/10/05 06:04:08;;;;;;;;;;;21.90;48.80;;;;;;1523743;77;1079;-58
2023/10/05 06:06:10;;;;;;;;;;;21.90;48.90;;;;;;1519561;77;729;-58
2023/10/05 06:08:12;;;;;;;;;;;21.90;48.80;;;;;;1518873;77;752;-59
2023/10/05 06:10:15;;;;;;;;;;;21.90;48.80;;;;;;1518942;77;1520;-59
2023/10/05 06:12:17;;;;;;;;;;;21.90;48.80;;;;;;1517763;77;1902;-57
2023/10/05 06:14:18;;;;;;;;;;;21.90;48.80;;;;;;1522441;76;799;-60
2023/10/05 06:16:20;;;;;;;;;;;21.90;48.70;;;;;;1524840;77;739;-57
2023/10/05 06:18:22;;;;;;;;;;;21.90;48.70;;;;;;1529794;76;721;-59
2023/10/05 06:20:25;;;;;;;;;;;21.90;48.70;;;;;;1516853;76;1137;-57
2023/10/05 06:22:27;;;;;;;;;;;21.90;48.60;;;;;;1520097;77;793;-58
2023/10/05 06:24:29;;;;;;;;;;;21.90;48.70;;;;;;1523996;77;1599;-60
2023/10/05 06:26:31;;;;;;;;;;;21.90;48.60;;;;;;1517604;77;743;-59
2023/10/05 06:28:33;;;;;;;;;;;22.00;48.60;;;;;;1521500;77;725;-58
2023/10/05 06:30:36;;;;;;;;;;;21.90;48.60;;;;;;1514890;77;1191;-59
2023/10/05 06:32:38;;;;;;;;;;;21.90;48.70;;;;;;1524613;77;1921;-58
2023/10/05 06:34:40;;;;;;;;;;;21.90;48.70;;;;;;1524602;76;741;-58
2023/10/05 06:36:42;;;;;;;;;;;21.90;48.70;;;;;;1513158;77;804;-57
2023/10/05 06:38:44;;;;;;;;;;;21.90;48.70;;;;;;1517967;77;1493;-58
2023/10/05 06:40:46;;;;;;;;;;;21.90;48.70;;;;;;1518703;76;1098;-59
2023/10/05 06:42:57;;;;;;;;;;;21.90;48.70;;;;;;1522852;76;772;-57
2023/10/05 06:44:55;;;;;;;;;;;21.90;48.70;;;;;;1521746;76;1691;-58
2023/10/05 06:46:57;;;;;;;;;;;21.90;48.80;;;;;;1516270;77;719;-59
2023/10/05 06:49:01;;;;;;;;;;;21.90;48.80;;;;;;1489195;78;793;-60
2023/10/05 06:51:03;;;;;;;;;;;21.90;48.80;;;;;;1518080;77;1145;-57
2023/10/05 06:53:07;;;;;;;;;;;21.90;48.80;;;;;;1517866;77;1933;-57
2023/10/05 06:55:15;;;;;;;;;;;21.90;48.90;;;;;;1528517;77;712;-57
2023/10/05 06:57:14;;;;;;;;;;;21.90;48.90;;;;;;1516306;77;1554;-58
2023/10/05 06:59:16;;;;;;;;;;;21.90;48.90;;;;;;1524166;77;742;-59
2023/10/05 07:01:20;;;;;;;;;;;21.90;48.90;;;;;;1523475;76;1173;-59
2023/10/05 07:03:21;;;;;;;;;;;21.90;48.90;;;;;;1524738;77;1672;-59
2023/10/05 07:05:23;;;;;;;;;;;21.90;48.90;;;;;;1511254;76;760;-60
2023/10/05 07:07:25;;;;;;;;;;;21.90;48.90;;;;;;1520210;76;1385;-57
2023/10/05 07:09:27;;;;;;;;;;;21.90;48.90;;;;;;1513999;77;785;-57
2023/10/05 07:11:30;;;;;;;;;;;21.90;49.00;;;;;;1531480;77;1103;-57
2023/10/05 07:13:32;;;;;;;;;;;21.90;48.90;;;;;;1526264;76;1908;-57
2023/10/05 07:15:34;;;;;;;;;;;21.90;49.00;;;;;;1533507;76;683;-55
2023/10/05 07:17:36;;;;;;;;;;;21.90;49.00;;;;;;1521095;77;926;-59
2023/10/05 07:19:37;;;;;;;;;;;21.90;49.00;;;;;;1522915;77;1481;-58
2023/10/05 07:21:39;;;;;;;;;;;21.90;49.00;;;;;;1525254;76;1119;-60
2023/10/05 07:23:41;;;;;;;;;;;21.90;49.10;;;;;;1524526;77;802;-60
2023/10/05 07:25:43;;;;;;;;;;;21.90;49.20;;;;;;1527373;76;782;-60
2023/10/05 07:27:45;;;;;;;;;;;21.90;49.10;;;;;;1524209;77;797;-60
2023/10/05 07:29:47;;;;;;;;;;;21.90;49.20;;;;;;1518430;77;730;-57
2023/10/05 07:31:49;;;;;;;;;;;21.90;49.20;;;;;;1520635;76;1158;-59
2023/10/05 07:33:51;;;;;;;;;;;21.90;49.10;;;;;;1526010;77;1963;-57
2023/10/05 07:35:56;;;;;;;;;;;21.90;49.20;;;;;;1527038;77;724;-58
2023/10/05 07:37:59;;;;;;;;;;;21.90;49.20;;;;;;1519012;77;811;-59
2023/10/05 07:40:04;;;;;;;;;;;21.90;49.20;;;;;;1518672;76;664;-57
2023/10/05 07:42:08;;;;;;;;;;;21.90;49.20;;;;;;1520442;76;1079;-57
2023/10/05 07:44:09;;;;;;;;;;;21.90;49.20;;;;;;1522359;77;1530;-59
2023/10/05 07:46:11;;;;;;;;;;;21.90;49.20;;;;;;1527686;76;695;-60
2023/10/05 07:48:13;;;;;;;;;;;21.90;49.30;;;;;;1523560;77;1501;-60
2023/10/05 07:50:18;;;;;;;;;;;21.90;49.30;;;;;;1520448;77;730;-57
2023/10/05 07:52:20;;;;;;;;;;;21.90;49.30;;;;;;1519360;77;753;-57
2023/10/05 07:54:22;;;;;;;;;;;21.90;49.30;;;;;;1522724;77;1940;-60
2023/10/05 07:56:24;;;;;;;;;;;21.80;49.20;;;;;;1527440;76;659;-60
2023/10/05 07:58:25;;;;;;;;;;;21.80;49.20;;;;;;1516328;76;738;-59
2023/10/05 08:00:27;;;;;;;;;;;21.80;49.20;;;;;;1525817;77;1127;-57
2023/10/05 08:02:30;;;;;;;;;;;21.90;49.40;;;;;;1518752;77;1599;-57
2023/10/05 08:04:32;;;;;;;;;;;21.90;49.40;;;;;;1522463;77;808;-61
2023/10/05 08:06:34;;;;;;;;;;;21.90;49.40;;;;;;1521168;76;721;-60
2023/10/05 08:08:36;;;;;;;;;;;21.90;49.50;;;;;;1524849;77;774;-58
2023/10/05 08:10:38;;;;;;;;;;;21.90;49.50;;;;;;1520912;77;1137;-60
2023/10/05 08:12:40;;;;;;;;;;;21.90;49.50;;;;;;1520174;76;801;-59
2023/10/05 08:14:44;;;;;;;;;;;21.90;49.50;;;;;;1524667;76;1929;-60
2023/10/05 08:16:46;;;;;;;;;;;21.90;49.60;;;;;;1520017;77;1598;-56
2023/10/05 08:18:48;;;;;;;;;;;21.90;49.60;;;;;;1520625;77;733;-57
2023/10/05 08:20:50;;;;;;;;;;;21.90;49.60;;;;;;1526548;77;1131;-60
2023/10/05 08:22:52;;;;;;;;;;;21.90;49.60;;;;;;1520458;76;686;-59
2023/10/05 08:24:54;;;;;;;;;;;21.90;49.60;;;;;;1521561;77;665;-57
2023/10/05 08:26:58;;;;;;;;;;;21.90;49.60;;;;;;1522243;76;754;-60
2023/10/05 08:29:01;;;;;;;;;;;21.90;49.70;;;;;;1522842;76;634;-58
2023/10/05 08:31:08;;;;;;;;;;;21.90;49.70;;;;;;1516927;77;1540;-56
2023/10/05 08:33:15;;;;;;;;;;;21.90;49.70;;;;;;1523149;76;1898;-58
2023/10/05 08:35:14;;;;;;;;;;;21.90;49.70;;;;;;1522575;77;1411;-61
2023/10/05 08:37:19;;;;;;;;;;;21.90;49.70;;;;;;1524615;76;722;-59
2023/10/05 08:39:34;;;;;;;;;;;21.90;49.70;;;;;;1520025;76;1764;-58
2023/10/05 08:41:36;;;;;;;;;;;21.90;49.70;;;;;;1525195;76;1617;-57
2023/10/05 08:43:41;;;;;;;;;;;21.90;49.70;;;;;;1520416;76;709;-58
2023/10/05 08:45:52;;;;;;;;;;;22.00;49.70;;;;;;1517737;77;1556;-58
2023/10/05 08:47:55;;;;;;;;;;;22.00;49.70;;;;;;1519374;76;646;-57
2023/10/05 08:49:59;;;;;;;;;;;21.90;49.80;;;;;;1523863;77;731;-57
2023/10/05 08:52:22;;;;;;;;;;;21.90;49.80;;;;;;1525663;77;1131;-57
2023/10/05 08:54:09;;;;;;;;;;;21.90;49.80;;;;;;1520279;77;1921;-59
2023/10/05 08:56:15;;;;;;;;;;;21.90;49.80;;;;;;1528427;76;1477;-57
2023/10/05 08:58:18;;;;;;;;;;;21.90;49.80;;;;;;1527957;76;1433;-57
2023/10/05 09:00:38;;;;;;;;;;;21.90;49.80;;;;;;1517301;76;1146;-57
2023/10/05 09:02:24;;;;;;;;;;;21.90;49.80;;;;;;1517522;76;1777;-56
2023/10/05 09:04:49;;;;;;;;;;;21.90;49.80;;;;;;1522028;76;868;-56
2023/10/05 09:06:30;;;;;;;;;;;21.90;49.90;;;;;;1512004;76;1446;-56
2023/10/05 09:08:37;;;;;;;;;;;21.90;49.90;;;;;;1517481;77;862;-57
2023/10/05 09:10:38;;;;;;;;;;;21.90;49.90;;;;;;1515382;77;1756;-60
2023/10/05 09:12:46;;;;;;;;;;;22.00;49.90;;;;;;1527912;76;1557;-59
2023/10/05 09:14:46;;;;;;;;;;;22.00;49.90;;;;;;1523064;76;1921;-57
2023/10/05 09:16:48;;;;;;;;;;;22.00;49.90;;;;;;1516636;77;735;-57
2023/10/05 09:18:51;;;;;;;;;;;21.90;49.90;;;;;;1519661;76;706;-57
2023/10/05 09:20:55;;;;;;;;;;;21.90;50.00;;;;;;1518924;76;1131;-58
2023/10/05 09:22:57;;;;;;;;;;;21.90;50.00;;;;;;1525109;77;726;-58
2023/10/05 09:24:59;;;;;;;;;;;21.90;50.00;;;;;;1526130;76;808;-56
2023/10/05 09:27:12;;;;;;;;;;;21.90;50.00;;;;;;1522233;77;1547;-54
2023/10/05 09:29:23;;;;;;;;;;;21.90;50.00;;;;;;1518944;77;1654;-55
2023/10/05 09:31:36;;;;;;;;;;;21.90;50.10;;;;;;1519714;76;1141;-58
2023/10/05 09:33:49;;;;;;;;;;;21.90;50.10;;;;;;1521851;77;1927;-58
2023/10/05 09:35:51;;;;;;;;;;;22.00;50.10;;;;;;1521253;77;713;-58
2023/10/05 09:37:53;;;;;;;;;;;21.90;50.10;;;;;;1525627;76;709;-59
2023/10/05 09:39:59;;;;;;;;;;;21.90;50.20;;;;;;1518209;77;716;-57
2023/10/05 09:42:01;;;;;;;;;;;21.90;50.20;;;;;;1518818;77;1575;-58
2023/10/05 09:44:05;;;;;;;;;;;21.90;50.20;;;;;;1520387;76;756;-56
2023/10/05 09:46:09;;;;;;;;;;;21.90;50.20;;;;;;1522239;76;720;-57
2023/10/05 09:48:10;;;;;;;;;;;21.90;50.30;;;;;;1532828;76;1626;-57
2023/10/05 09:50:13;;;;;;;;;;;21.90;50.30;;;;;;1522137;77;791;-58
2023/10/05 09:52:15;;;;;;;;;;;21.90;50.30;;;;;;1522909;77;1202;-57
2023/10/05 09:54:19;;;;;;;;;;;21.90;50.40;;;;;;1522041;77;1916;-57
2023/10/05 09:56:21;;;;;;;;;;;21.90;50.30;;;;;;1520088;77;1691;-58
2023/10/05 09:58:23;;;;;;;;;;;21.90;50.40;;;;;;1536070;76;685;-55
2023/10/05 10:00:30;;;;;;;;;;;21.90;50.40;;;;;;1525650;77;1154;-57
2023/10/05 10:02:34;;;;;;;;;;;22.00;50.40;;;;;;1518612;76;1597;-57
2023/10/05 10:04:36;;;;;;;;;;;21.90;50.50;;;;;;1518817;77;801;-57
2023/10/05 10:06:40;;;;;;;;;;;21.90;50.40;;;;;;1517524;77;712;-59
2023/10/05 10:08:51;;;;;;;;;;;22.00;50.50;;;;;;1511207;77;1511;-57
2023/10/05 10:10:51;;;;;;;;;;;22.00;50.50;;;;;;1515926;76;1622;-59
2023/10/05 10:12:52;;;;;;;;;;;22.00;50.40;;;;;;1518927;76;1688;-57
2023/10/05 10:14:58;;;;;;;;;;;22.00;50.50;;;;;;1527855;77;1921;-58
2023/10/05 10:17:02;;;;;;;;;;;21.90;50.50;;;;;;1522097;77;1611;-57
2023/10/05 10:19:07;;;;;;;;;;;22.00;50.50;;;;;;1526038;76;690;-58
2023/10/05 10:21:12;;;;;;;;;;;21.90;50.50;;;;;;1518860;77;1164;-57
2023/10/05 10:23:19;;;;;;;;;;;21.90;50.50;;;;;;1526732;77;1767;-59
2023/10/05 10:25:31;;;;;;;;;;;22.00;50.70;;;;;;1519730;77;1721;-58
2023/10/05 10:27:35;;;;;;;;;;;22.00;50.60;;;;;;1519557;77;730;-57
2023/10/05 10:29:45;;;;;;;;;;;22.00;50.50;;;;;;1517897;77;1762;-57
2023/10/05 10:31:48;;;;;;;;;;;22.00;50.50;;;;;;1505776;77;1553;-58
2023/10/05 10:33:53;;;;;;;;;;;22.00;50.50;;;;;;1522046;76;1905;-56
2023/10/05 10:35:56;;;;;;;;;;;22.00;50.50;;;;;;1518723;77;726;-60
2023/10/05 10:38:05;;;;;;;;;;;22.10;50.50;;;;;;1525218;77;1534;-58
2023/10/05 10:40:02;;;;;;;;;;;22.00;50.50;;;;;;1523875;76;1619;-57
2023/10/05 10:42:12;;;;;;;;;;;22.00;50.80;;;;;;1519819;76;1778;-58
2023/10/05 10:44:24;;;;;;;;;;;22.00;51.70;;;;;;1518330;76;1584;-58
2023/10/05 10:46:29;;;;;;;;;;;22.10;51.80;;;;;;1528127;77;634;-59
2023/10/05 10:48:36;;;;;;;;;;;22.10;52.40;;;;;;1519349;77;1175;-58
2023/10/05 10:50:37;;;;;;;;;;;22.10;52.30;;;;;;1527936;76;1660;-58
2023/10/05 10:52:39;;;;;;;;;;;22.10;52.50;;;;;;1516557;76;1039;-59
2023/10/05 10:54:42;;;;;;;;;;;22.10;52.40;;;;;;1527384;77;1943;-57
2023/10/05 10:56:44;;;;;;;;;;;22.10;52.50;;;;;;1521191;77;784;-58
2023/10/05 10:58:46;;;;;;;;;;;22.10;52.50;;;;;;1529256;76;695;-60
2023/10/05 11:00:59;;;;;;;;;;;22.10;52.50;;;;;;1522822;77;1090;-57
2023/10/05 11:03:09;;;;;;;;;;;22.10;52.40;;;;;;1519198;77;1676;-60
2023/10/05 11:05:05;;;;;;;;;;;22.10;52.50;;;;;;1516333;77;1697;-58
2023/10/05 11:07:07;;;;;;;;;;;22.10;52.50;;;;;;1520334;77;742;-59
2023/10/05 11:09:10;;;;;;;;;;;22.10;52.40;;;;;;1519769;77;705;-60
2023/10/05 11:11:19;;;;;;;;;;;22.10;52.40;;;;;;1527808;77;1154;-57
2023/10/05 11:13:21;;;;;;;;;;;22.10;52.40;;;;;;1540580;77;1999;-59
2023/10/05 11:15:30;;;;;;;;;;;22.20;52.30;;;;;;1519403;76;1913;-59
2023/10/05 11:17:36;;;;;;;;;;;22.10;52.30;;;;;;1529112;77;1722;-57
2023/10/05 11:19:40;;;;;;;;;;;22.10;52.30;;;;;;1526800;77;1528;-57
2023/10/05 11:21:47;;;;;;;;;;;22.20;52.30;;;;;;1533380;77;1129;-60
2023/10/05 11:23:56;;;;;;;;;;;22.10;52.20;;;;;;1527389;77;657;-57
2023/10/05 11:26:17;;;;;;;;;;;22.10;52.20;;;;;;1525937;77;1362;-59
2023/10/05 11:27:57;;;;;;;;;;;22.10;52.20;;;;;;1518099;76;1459;-54
2023/10/05 11:29:59;;;;;;;;;;;22.10;52.10;;;;;;1527860;77;744;-57
2023/10/05 11:32:12;;;;;;;;;;;22.20;52.10;;;;;;1520425;77;1143;-59
2023/10/05 11:34:12;;;;;;;;;;;22.10;52.10;;;;;;1527894;76;1937;-59
2023/10/05 11:36:21;;;;;;;;;;;22.10;52.10;;;;;;1517935;77;734;-58
2023/10/05 11:38:26;;;;;;;;;;;22.10;52.00;;;;;;1522889;77;1762;-57
2023/10/05 11:40:34;;;;;;;;;;;22.20;52.00;;;;;;1532284;77;1647;-57
2023/10/05 11:42:41;;;;;;;;;;;22.10;52.00;;;;;;1517737;76;725;-58
2023/10/05 11:44:44;;;;;;;;;;;22.20;52.00;;;;;;1521948;77;1486;-58
2023/10/05 11:46:44;;;;;;;;;;;22.10;51.90;;;;;;1523136;77;1587;-60
2023/10/05 11:48:48;;;;;;;;;;;22.10;51.90;;;;;;1527750;76;1887;-60
2023/10/05 11:50:53;;;;;;;;;;;22.20;52.00;;;;;;1522931;77;1150;-58
2023/10/05 11:52:55;;;;;;;;;;;22.10;51.90;;;;;;1500336;78;1079;-60
2023/10/05 11:54:57;;;;;;;;;;;22.10;51.90;;;;;;1525139;77;1916;-61
2023/10/05 11:57:05;;;;;;;;;;;22.20;51.90;;;;;;1528237;76;693;-59
2023/10/05 11:59:05;;;;;;;;;;;22.10;51.90;;;;;;1516491;77;1684;-57
2023/10/05 12:01:06;;;;;;;;;;;22.20;51.80;;;;;;1529550;77;1686;-59
2023/10/05 12:03:09;;;;;;;;;;;22.20;51.90;;;;;;1520212;77;800;-60
2023/10/05 12:05:11;;;;;;;;;;;22.20;51.80;;;;;;1528338;77;809;-59
2023/10/05 12:07:13;;;;;;;;;;;22.20;51.80;;;;;;1524562;77;727;-58
2023/10/05 12:09:27;;;;;;;;;;;22.10;51.80;;;;;;1516158;76;742;-56
2023/10/05 12:11:29;;;;;;;;;;;22.20;51.70;;;;;;1518890;77;1118;-60
2023/10/05 12:13:31;;;;;;;;;;;22.10;51.70;;;;;;1519177;77;778;-57
2023/10/05 12:15:33;;;;;;;;;;;22.10;51.70;;;;;;1525070;77;1972;-58
2023/10/05 12:17:37;;;;;;;;;;;22.20;51.70;;;;;;1524856;76;734;-60
2023/10/05 12:19:39;;;;;;;;;;;22.10;51.70;;;;;;1530707;77;717;-60
2023/10/05 12:21:42;;;;;;;;;;;22.10;51.70;;;;;;1524124;77;1146;-59
2023/10/05 12:23:44;;;;;;;;;;;22.20;51.60;;;;;;1522033;77;737;-56
2023/10/05 12:25:46;;;;;;;;;;;22.10;51.70;;;;;;1523304;76;706;-60